sensor_id;sensor_type;location;lat;lon;timestamp;P1;durP1;ratioP1;P2;durP2;ratioP2
3873;SDS011;1952;50.872;6.692;2023-07-09T00:01:50;10.47;;;9.13;;
3873;SDS011;1952;50.872;6.692;2023-07-09T00:04:18;9.87;;;8.80;;
3873;SDS011;1952;50.872;6.692;2023-07-09T00:06:47;8.97;;;8.07;;
3873;SDS011;1952;50.872;6.692;2023-07-09T00:09:17;10.90;;;8.70;;
3873;SDS011;1952;50.872;6.692;2023-07-09T00:11:49;9.70;;;8.80;;
3873;SDS011;1952;50.872;6.692;2023-07-09T00:14:18;9.60;;;8.60;;
3873;SDS011;1952;50.872;6.692;2023-07-09T00:16:46;13.03;;;8.53;;
3873;SDS011;1952;50.872;6.692;2023-07-09T00:55:52;11.00;;;9.87;;
3873;SDS011;1952;50.872;6.692;2023-07-09T00:58:25;12.10;;;9.87;;
3873;SDS011;1952;50.872;6.692;2023-07-09T01:00:54;12.33;;;9.20;;
3873;SDS011;1952;50.872;6.692;2023-07-09T01:03:32;11.23;;;9.50;;
3873;SDS011;1952;50.872;6.692;2023-07-09T01:06:04;10.13;;;9.03;;
3873;SDS011;1952;50.872;6.692;2023-07-09T01:08:33;11.73;;;10.60;;
3873;SDS011;1952;50.872;6.692;2023-07-09T01:11:04;12.07;;;10.43;;
3873;SDS011;1952;50.872;6.692;2023-07-09T01:13:34;11.33;;;9.90;;
3873;SDS011;1952;50.872;6.692;2023-07-09T01:16:05;10.23;;;9.33;;
3873;SDS011;1952;50.872;6.692;2023-07-09T01:18:34;12.10;;;9.70;;
3873;SDS011;1952;50.872;6.692;2023-07-09T01:21:08;11.83;;;9.87;;
3873;SDS011;1952;50.872;6.692;2023-07-09T01:23:41;10.23;;;9.17;;
3873;SDS011;1952;50.872;6.692;2023-07-09T01:26:10;10.20;;;9.30;;
3873;SDS011;1952;50.872;6.692;2023-07-09T01:28:39;13.40;;;9.93;;
3873;SDS011;1952;50.872;6.692;2023-07-09T01:31:10;10.77;;;9.50;;
3873;SDS011;1952;50.872;6.692;2023-07-09T01:33:39;13.40;;;9.80;;
3873;SDS011;1952;50.872;6.692;2023-07-09T01:36:09;10.50;;;9.27;;
3873;SDS011;1952;50.872;6.692;2023-07-09T01:38:39;11.00;;;9.30;;
3873;SDS011;1952;50.872;6.692;2023-07-09T01:41:08;11.30;;;10.00;;
3873;SDS011;1952;50.872;6.692;2023-07-09T01:43:40;9.93;;;8.93;;
3873;SDS011;1952;50.872;6.692;2023-07-09T01:46:09;12.20;;;9.60;;
3873;SDS011;1952;50.872;6.692;2023-07-09T01:48:38;10.70;;;9.60;;
3873;SDS011;1952;50.872;6.692;2023-07-09T01:51:09;13.20;;;9.90;;
3873;SDS011;1952;50.872;6.692;2023-07-09T01:53:39;10.37;;;9.40;;
3873;SDS011;1952;50.872;6.692;2023-07-09T01:56:07;12.10;;;9.70;;
3873;SDS011;1952;50.872;6.692;2023-07-09T01:58:36;9.87;;;8.97;;
3873;SDS011;1952;50.872;6.692;2023-07-09T02:01:08;13.03;;;9.20;;
3873;SDS011;1952;50.872;6.692;2023-07-09T02:03:37;10.70;;;9.67;;
3873;SDS011;1952;50.872;6.692;2023-07-09T02:06:05;10.70;;;9.53;;
3873;SDS011;1952;50.872;6.692;2023-07-09T02:08:37;10.47;;;9.23;;
3873;SDS011;1952;50.872;6.692;2023-07-09T02:11:05;11.00;;;9.90;;
3873;SDS011;1952;50.872;6.692;2023-07-09T02:13:33;10.67;;;9.60;;
3873;SDS011;1952;50.872;6.692;2023-07-09T02:16:01;10.80;;;9.80;;
3873;SDS011;1952;50.872;6.692;2023-07-09T02:18:30;9.47;;;8.57;;
3873;SDS011;1952;50.872;6.692;2023-07-09T02:20:57;10.50;;;8.73;;
3873;SDS011;1952;50.872;6.692;2023-07-09T02:23:26;10.30;;;8.33;;
3873;SDS011;1952;50.872;6.692;2023-07-09T02:25:56;18.27;;;10.10;;
3873;SDS011;1952;50.872;6.692;2023-07-09T02:28:24;15.50;;;8.17;;
3873;SDS011;1952;50.872;6.692;2023-07-09T02:30:53;9.70;;;8.23;;
3873;SDS011;1952;50.872;6.692;2023-07-09T02:33:21;8.67;;;7.87;;
3873;SDS011;1952;50.872;6.692;2023-07-09T02:35:49;10.90;;;8.83;;
3873;SDS011;1952;50.872;6.692;2023-07-09T02:38:18;11.50;;;9.80;;
3873;SDS011;1952;50.872;6.692;2023-07-09T02:40:46;10.60;;;9.60;;
3873;SDS011;1952;50.872;6.692;2023-07-09T02:43:15;9.70;;;8.60;;
3873;SDS011;1952;50.872;6.692;2023-07-09T02:45:43;10.77;;;9.20;;
3873;SDS011;1952;50.872;6.692;2023-07-09T02:48:12;11.93;;;9.53;;
3873;SDS011;1952;50.872;6.692;2023-07-09T02:50:40;10.33;;;9.23;;
3873;SDS011;1952;50.872;6.692;2023-07-09T02:53:08;13.17;;;8.80;;
3873;SDS011;1952;50.872;6.692;2023-07-09T02:55:36;11.60;;;9.63;;
3873;SDS011;1952;50.872;6.692;2023-07-09T02:58:04;13.20;;;10.20;;
3873;SDS011;1952;50.872;6.692;2023-07-09T03:00:34;10.67;;;9.57;;
3873;SDS011;1952;50.872;6.692;2023-07-09T03:03:02;14.90;;;8.80;;
3873;SDS011;1952;50.872;6.692;2023-07-09T03:05:30;12.23;;;9.53;;
3873;SDS011;1952;50.872;6.692;2023-07-09T03:07:58;10.73;;;9.20;;
3873;SDS011;1952;50.872;6.692;2023-07-09T03:10:28;12.07;;;9.80;;
3873;SDS011;1952;50.872;6.692;2023-07-09T03:12:56;10.80;;;9.80;;
3873;SDS011;1952;50.872;6.692;2023-07-09T03:15:24;9.77;;;8.87;;
3873;SDS011;1952;50.872;6.692;2023-07-09T03:17:53;9.80;;;8.53;;
3873;SDS011;1952;50.872;6.692;2023-07-09T03:20:21;12.70;;;10.30;;
3873;SDS011;1952;50.872;6.692;2023-07-09T03:22:49;10.43;;;8.50;;
3873;SDS011;1952;50.872;6.692;2023-07-09T03:25:18;10.47;;;8.00;;
3873;SDS011;1952;50.872;6.692;2023-07-09T03:27:46;11.00;;;9.43;;
3873;SDS011;1952;50.872;6.692;2023-07-09T03:30:15;11.13;;;10.10;;
3873;SDS011;1952;50.872;6.692;2023-07-09T03:32:43;12.03;;;9.47;;
3873;SDS011;1952;50.872;6.692;2023-07-09T03:35:12;10.70;;;9.07;;
3873;SDS011;1952;50.872;6.692;2023-07-09T03:37:41;11.93;;;8.50;;
3873;SDS011;1952;50.872;6.692;2023-07-09T03:40:10;10.00;;;9.00;;
3873;SDS011;1952;50.872;6.692;2023-07-09T03:42:38;10.27;;;9.27;;
3873;SDS011;1952;50.872;6.692;2023-07-09T03:45:06;14.07;;;10.57;;
3873;SDS011;1952;50.872;6.692;2023-07-09T03:47:34;9.90;;;8.90;;
3873;SDS011;1952;50.872;6.692;2023-07-09T03:50:03;10.00;;;9.00;;
3873;SDS011;1952;50.872;6.692;2023-07-09T03:52:33;9.70;;;8.80;;
3873;SDS011;1952;50.872;6.692;2023-07-09T03:55:01;12.40;;;9.50;;
3873;SDS011;1952;50.872;6.692;2023-07-09T03:57:30;10.33;;;9.37;;
3873;SDS011;1952;50.872;6.692;2023-07-09T03:59:58;13.40;;;8.00;;
3873;SDS011;1952;50.872;6.692;2023-07-09T04:02:27;10.17;;;9.10;;
3873;SDS011;1952;50.872;6.692;2023-07-09T04:04:55;11.23;;;9.73;;
3873;SDS011;1952;50.872;6.692;2023-07-09T04:07:23;10.77;;;9.50;;
3873;SDS011;1952;50.872;6.692;2023-07-09T04:09:53;11.67;;;10.00;;
3873;SDS011;1952;50.872;6.692;2023-07-09T04:12:21;11.13;;;8.97;;
3873;SDS011;1952;50.872;6.692;2023-07-09T04:14:49;11.30;;;9.67;;
3873;SDS011;1952;50.872;6.692;2023-07-09T04:17:17;12.83;;;9.93;;
3873;SDS011;1952;50.872;6.692;2023-07-09T04:19:46;12.50;;;9.33;;
3873;SDS011;1952;50.872;6.692;2023-07-09T04:22:14;12.30;;;8.80;;
3873;SDS011;1952;50.872;6.692;2023-07-09T04:24:42;10.43;;;9.43;;
3873;SDS011;1952;50.872;6.692;2023-07-09T04:27:11;11.53;;;10.00;;
3873;SDS011;1952;50.872;6.692;2023-07-09T04:29:40;13.57;;;9.00;;
3873;SDS011;1952;50.872;6.692;2023-07-09T04:32:08;11.97;;;9.33;;
3873;SDS011;1952;50.872;6.692;2023-07-09T04:34:41;13.50;;;9.93;;
3873;SDS011;1952;50.872;6.692;2023-07-09T04:37:09;15.13;;;9.37;;
3873;SDS011;1952;50.872;6.692;2023-07-09T04:39:39;10.47;;;9.13;;
3873;SDS011;1952;50.872;6.692;2023-07-09T04:42:07;10.57;;;9.23;;
3873;SDS011;1952;50.872;6.692;2023-07-09T04:44:41;9.80;;;8.80;;
3873;SDS011;1952;50.872;6.692;2023-07-09T04:47:09;10.40;;;8.00;;
3873;SDS011;1952;50.872;6.692;2023-07-09T04:49:38;12.43;;;9.40;;
3873;SDS011;1952;50.872;6.692;2023-07-09T04:52:07;12.50;;;9.23;;
3873;SDS011;1952;50.872;6.692;2023-07-09T04:54:39;11.60;;;8.60;;
3873;SDS011;1952;50.872;6.692;2023-07-09T04:57:10;11.27;;;9.50;;
3873;SDS011;1952;50.872;6.692;2023-07-09T04:59:39;12.10;;;9.27;;
3873;SDS011;1952;50.872;6.692;2023-07-09T05:02:07;12.63;;;8.87;;
3873;SDS011;1952;50.872;6.692;2023-07-09T05:04:35;9.03;;;8.20;;
3873;SDS011;1952;50.872;6.692;2023-07-09T05:07:04;12.77;;;9.97;;
3873;SDS011;1952;50.872;6.692;2023-07-09T05:09:33;10.63;;;9.53;;
3873;SDS011;1952;50.872;6.692;2023-07-09T05:12:01;10.43;;;9.33;;
3873;SDS011;1952;50.872;6.692;2023-07-09T05:14:31;11.00;;;8.10;;
3873;SDS011;1952;50.872;6.692;2023-07-09T05:16:58;9.90;;;8.90;;
3873;SDS011;1952;50.872;6.692;2023-07-09T05:19:26;9.53;;;8.53;;
3873;SDS011;1952;50.872;6.692;2023-07-09T05:21:55;13.10;;;9.40;;
3873;SDS011;1952;50.872;6.692;2023-07-09T05:24:23;11.80;;;8.60;;
3873;SDS011;1952;50.872;6.692;2023-07-09T05:26:54;9.00;;;8.20;;
3873;SDS011;1952;50.872;6.692;2023-07-09T05:29:22;8.87;;;8.00;;
3873;SDS011;1952;50.872;6.692;2023-07-09T05:31:51;9.53;;;8.73;;
3873;SDS011;1952;50.872;6.692;2023-07-09T05:34:20;9.43;;;8.47;;
3873;SDS011;1952;50.872;6.692;2023-07-09T05:36:48;8.17;;;7.43;;
3873;SDS011;1952;50.872;6.692;2023-07-09T05:39:16;10.30;;;8.23;;
3873;SDS011;1952;50.872;6.692;2023-07-09T05:41:44;8.20;;;7.40;;
3873;SDS011;1952;50.872;6.692;2023-07-09T05:44:12;8.53;;;7.77;;
3873;SDS011;1952;50.872;6.692;2023-07-09T05:46:40;9.87;;;8.87;;
3873;SDS011;1952;50.872;6.692;2023-07-09T05:49:09;10.30;;;8.70;;
3873;SDS011;1952;50.872;6.692;2023-07-09T05:51:39;9.03;;;8.10;;
3873;SDS011;1952;50.872;6.692;2023-07-09T05:54:08;12.17;;;8.53;;
3873;SDS011;1952;50.872;6.692;2023-07-09T05:56:37;10.10;;;9.10;;
3873;SDS011;1952;50.872;6.692;2023-07-09T05:59:05;12.43;;;8.67;;
3873;SDS011;1952;50.872;6.692;2023-07-09T06:01:34;9.93;;;9.03;;
3873;SDS011;1952;50.872;6.692;2023-07-09T06:04:02;8.43;;;7.63;;
3873;SDS011;1952;50.872;6.692;2023-07-09T06:06:32;8.77;;;7.30;;
3873;SDS011;1952;50.872;6.692;2023-07-09T06:09:00;9.40;;;7.67;;
3873;SDS011;1952;50.872;6.692;2023-07-09T06:11:28;8.90;;;8.00;;
3873;SDS011;1952;50.872;6.692;2023-07-09T06:13:56;9.40;;;8.23;;
3873;SDS011;1952;50.872;6.692;2023-07-09T06:16:25;7.93;;;7.13;;
3873;SDS011;1952;50.872;6.692;2023-07-09T06:18:54;9.70;;;7.90;;
3873;SDS011;1952;50.872;6.692;2023-07-09T06:21:22;8.80;;;7.90;;
3873;SDS011;1952;50.872;6.692;2023-07-09T06:23:51;10.37;;;8.20;;
3873;SDS011;1952;50.872;6.692;2023-07-09T06:26:19;10.87;;;8.27;;
3873;SDS011;1952;50.872;6.692;2023-07-09T06:28:47;9.47;;;8.47;;
3873;SDS011;1952;50.872;6.692;2023-07-09T06:31:15;8.47;;;7.77;;
3873;SDS011;1952;50.872;6.692;2023-07-09T06:33:44;9.43;;;7.90;;
3873;SDS011;1952;50.872;6.692;2023-07-09T06:36:12;8.80;;;7.63;;
3873;SDS011;1952;50.872;6.692;2023-07-09T06:38:40;8.30;;;7.60;;
3873;SDS011;1952;50.872;6.692;2023-07-09T06:41:10;10.53;;;7.97;;
3873;SDS011;1952;50.872;6.692;2023-07-09T06:43:38;9.10;;;8.07;;
3873;SDS011;1952;50.872;6.692;2023-07-09T06:46:06;9.30;;;8.43;;
3873;SDS011;1952;50.872;6.692;2023-07-09T06:48:37;8.20;;;7.50;;
3873;SDS011;1952;50.872;6.692;2023-07-09T06:51:05;8.70;;;7.80;;
3873;SDS011;1952;50.872;6.692;2023-07-09T06:53:33;9.13;;;8.00;;
3873;SDS011;1952;50.872;6.692;2023-07-09T06:56:03;9.70;;;7.70;;
3873;SDS011;1952;50.872;6.692;2023-07-09T06:58:33;10.27;;;7.53;;
3873;SDS011;1952;50.872;6.692;2023-07-09T07:01:01;8.50;;;7.70;;
3873;SDS011;1952;50.872;6.692;2023-07-09T07:03:31;10.53;;;7.73;;
3873;SDS011;1952;50.872;6.692;2023-07-09T07:05:59;9.60;;;7.70;;
3873;SDS011;1952;50.872;6.692;2023-07-09T07:08:29;7.33;;;6.63;;
3873;SDS011;1952;50.872;6.692;2023-07-09T07:10:58;8.30;;;7.57;;
3873;SDS011;1952;50.872;6.692;2023-07-09T07:13:29;8.00;;;6.63;;
3873;SDS011;1952;50.872;6.692;2023-07-09T07:16:00;8.80;;;8.00;;
3873;SDS011;1952;50.872;6.692;2023-07-09T07:18:28;7.40;;;6.67;;
3873;SDS011;1952;50.872;6.692;2023-07-09T07:20:56;8.20;;;7.40;;
3873;SDS011;1952;50.872;6.692;2023-07-09T07:23:25;7.87;;;7.07;;
3873;SDS011;1952;50.872;6.692;2023-07-09T07:25:53;7.80;;;7.00;;
3873;SDS011;1952;50.872;6.692;2023-07-09T07:28:22;7.50;;;6.90;;
3873;SDS011;1952;50.872;6.692;2023-07-09T07:30:58;8.00;;;6.80;;
3873;SDS011;1952;50.872;6.692;2023-07-09T07:33:28;8.17;;;6.30;;
3873;SDS011;1952;50.872;6.692;2023-07-09T07:35:56;10.83;;;6.57;;
3873;SDS011;1952;50.872;6.692;2023-07-09T07:38:27;8.33;;;6.57;;
3873;SDS011;1952;50.872;6.692;2023-07-09T07:40:55;8.30;;;6.90;;
3873;SDS011;1952;50.872;6.692;2023-07-09T07:43:23;7.37;;;6.67;;
3873;SDS011;1952;50.872;6.692;2023-07-09T07:45:52;7.30;;;6.60;;
3873;SDS011;1952;50.872;6.692;2023-07-09T07:48:23;7.60;;;7.00;;
3873;SDS011;1952;50.872;6.692;2023-07-09T07:50:51;7.23;;;6.53;;
3873;SDS011;1952;50.872;6.692;2023-07-09T07:53:28;13.77;;;7.17;;
3873;SDS011;1952;50.872;6.692;2023-07-09T07:55:57;7.93;;;6.90;;
3873;SDS011;1952;50.872;6.692;2023-07-09T07:58:26;7.13;;;6.53;;
3873;SDS011;1952;50.872;6.692;2023-07-09T08:00:54;9.63;;;7.43;;
3873;SDS011;1952;50.872;6.692;2023-07-09T08:03:37;9.47;;;6.77;;
3873;SDS011;1952;50.872;6.692;2023-07-09T08:06:05;7.57;;;6.97;;
3873;SDS011;1952;50.872;6.692;2023-07-09T08:08:35;8.00;;;6.77;;
3873;SDS011;1952;50.872;6.692;2023-07-09T08:11:04;7.73;;;7.03;;
3873;SDS011;1952;50.872;6.692;2023-07-09T08:13:34;8.10;;;7.30;;
3873;SDS011;1952;50.872;6.692;2023-07-09T08:16:03;8.00;;;7.27;;
3873;SDS011;1952;50.872;6.692;2023-07-09T08:18:32;8.77;;;6.37;;
3873;SDS011;1952;50.872;6.692;2023-07-09T08:21:02;6.90;;;6.40;;
3873;SDS011;1952;50.872;6.692;2023-07-09T08:23:31;6.83;;;6.20;;
3873;SDS011;1952;50.872;6.692;2023-07-09T08:26:00;7.30;;;6.70;;
3873;SDS011;1952;50.872;6.692;2023-07-09T08:28:30;10.30;;;7.60;;
3873;SDS011;1952;50.872;6.692;2023-07-09T08:30:59;8.03;;;7.30;;
3873;SDS011;1952;50.872;6.692;2023-07-09T08:33:29;7.90;;;7.30;;
3873;SDS011;1952;50.872;6.692;2023-07-09T08:35:57;7.63;;;6.63;;
3873;SDS011;1952;50.872;6.692;2023-07-09T08:38:27;7.70;;;7.00;;
3873;SDS011;1952;50.872;6.692;2023-07-09T08:40:57;8.90;;;7.13;;
3873;SDS011;1952;50.872;6.692;2023-07-09T08:43:32;10.70;;;7.63;;
3873;SDS011;1952;50.872;6.692;2023-07-09T08:46:05;8.13;;;7.30;;
3873;SDS011;1952;50.872;6.692;2023-07-09T08:48:39;7.20;;;6.50;;
3873;SDS011;1952;50.872;6.692;2023-07-09T08:51:14;7.43;;;6.37;;
3873;SDS011;1952;50.872;6.692;2023-07-09T08:53:48;9.07;;;6.90;;
3873;SDS011;1952;50.872;6.692;2023-07-09T08:56:20;6.83;;;6.33;;
3873;SDS011;1952;50.872;6.692;2023-07-09T08:58:50;7.13;;;6.43;;
3873;SDS011;1952;50.872;6.692;2023-07-09T09:01:23;9.10;;;6.07;;
3873;SDS011;1952;50.872;6.692;2023-07-09T09:03:58;7.37;;;6.77;;
3873;SDS011;1952;50.872;6.692;2023-07-09T09:06:31;7.83;;;7.10;;
3873;SDS011;1952;50.872;6.692;2023-07-09T09:09:04;7.43;;;6.77;;
3873;SDS011;1952;50.872;6.692;2023-07-09T09:11:42;6.73;;;6.10;;
3873;SDS011;1952;50.872;6.692;2023-07-09T09:14:17;7.33;;;6.63;;
3873;SDS011;1952;50.872;6.692;2023-07-09T09:16:55;7.73;;;7.10;;
3873;SDS011;1952;50.872;6.692;2023-07-09T09:19:26;7.70;;;7.00;;
3873;SDS011;1952;50.872;6.692;2023-07-09T09:21:58;8.40;;;6.57;;
3873;SDS011;1952;50.872;6.692;2023-07-09T09:24:34;6.57;;;5.97;;
3873;SDS011;1952;50.872;6.692;2023-07-09T09:27:04;6.40;;;5.90;;
3873;SDS011;1952;50.872;6.692;2023-07-09T09:29:33;8.23;;;6.90;;
3873;SDS011;1952;50.872;6.692;2023-07-09T09:32:05;6.50;;;5.90;;
3873;SDS011;1952;50.872;6.692;2023-07-09T09:34:46;10.00;;;6.63;;
3873;SDS011;1952;50.872;6.692;2023-07-09T09:37:22;7.23;;;6.53;;
3873;SDS011;1952;50.872;6.692;2023-07-09T09:39:56;6.43;;;5.87;;
3873;SDS011;1952;50.872;6.692;2023-07-09T09:42:29;7.30;;;6.70;;
3873;SDS011;1952;50.872;6.692;2023-07-09T09:44:58;7.20;;;6.33;;
3873;SDS011;1952;50.872;6.692;2023-07-09T09:47:40;7.60;;;6.53;;
3873;SDS011;1952;50.872;6.692;2023-07-09T09:50:09;6.30;;;5.73;;
3873;SDS011;1952;50.872;6.692;2023-07-09T09:52:40;8.73;;;5.70;;
3873;SDS011;1952;50.872;6.692;2023-07-09T09:55:12;7.17;;;6.50;;
3873;SDS011;1952;50.872;6.692;2023-07-09T09:57:48;6.30;;;5.80;;
3873;SDS011;1952;50.872;6.692;2023-07-09T10:00:21;8.60;;;5.93;;
3873;SDS011;1952;50.872;6.692;2023-07-09T10:02:56;7.20;;;5.87;;
3873;SDS011;1952;50.872;6.692;2023-07-09T10:05:30;8.80;;;6.10;;
3873;SDS011;1952;50.872;6.692;2023-07-09T10:08:03;8.20;;;5.40;;
3873;SDS011;1952;50.872;6.692;2023-07-09T10:10:38;6.63;;;6.10;;
3873;SDS011;1952;50.872;6.692;2023-07-09T10:13:13;6.03;;;5.53;;
3873;SDS011;1952;50.872;6.692;2023-07-09T10:15:51;6.00;;;4.63;;
3873;SDS011;1952;50.872;6.692;2023-07-09T10:18:32;5.17;;;4.23;;
3873;SDS011;1952;50.872;6.692;2023-07-09T10:21:10;5.07;;;4.60;;
3873;SDS011;1952;50.872;6.692;2023-07-09T10:23:45;4.90;;;4.40;;
3873;SDS011;1952;50.872;6.692;2023-07-09T10:26:21;6.63;;;4.80;;
3873;SDS011;1952;50.872;6.692;2023-07-09T10:29:07;5.43;;;4.03;;
3873;SDS011;1952;50.872;6.692;2023-07-09T10:31:53;4.23;;;3.93;;
3873;SDS011;1952;50.872;6.692;2023-07-09T10:34:31;9.67;;;4.43;;
3873;SDS011;1952;50.872;6.692;2023-07-09T10:37:12;5.17;;;4.67;;
3873;SDS011;1952;50.872;6.692;2023-07-09T10:39:53;6.30;;;4.40;;
3873;SDS011;1952;50.872;6.692;2023-07-09T10:42:26;5.17;;;4.70;;
3873;SDS011;1952;50.872;6.692;2023-07-09T10:44:57;4.80;;;4.40;;
3873;SDS011;1952;50.872;6.692;2023-07-09T10:47:32;4.73;;;4.30;;
3873;SDS011;1952;50.872;6.692;2023-07-09T10:50:05;4.70;;;4.30;;
3873;SDS011;1952;50.872;6.692;2023-07-09T10:52:40;5.33;;;4.60;;
3873;SDS011;1952;50.872;6.692;2023-07-09T10:55:15;5.37;;;4.87;;
3873;SDS011;1952;50.872;6.692;2023-07-09T10:57:48;4.47;;;4.13;;
3873;SDS011;1952;50.872;6.692;2023-07-09T11:00:22;5.17;;;4.77;;
3873;SDS011;1952;50.872;6.692;2023-07-09T11:03:03;6.40;;;4.97;;
3873;SDS011;1952;50.872;6.692;2023-07-09T11:05:39;5.73;;;5.03;;
3873;SDS011;1952;50.872;6.692;2023-07-09T11:08:10;5.13;;;4.63;;
3873;SDS011;1952;50.872;6.692;2023-07-09T11:10:44;5.97;;;4.53;;
3873;SDS011;1952;50.872;6.692;2023-07-09T11:13:18;5.20;;;4.43;;
3873;SDS011;1952;50.872;6.692;2023-07-09T11:16:16;6.10;;;5.00;;
3873;SDS011;1952;50.872;6.692;2023-07-09T11:18:53;5.83;;;5.33;;
3873;SDS011;1952;50.872;6.692;2023-07-09T11:21:25;4.90;;;4.50;;
3873;SDS011;1952;50.872;6.692;2023-07-09T11:23:54;4.93;;;4.53;;
3873;SDS011;1952;50.872;6.692;2023-07-09T11:26:26;5.03;;;4.63;;
3873;SDS011;1952;50.872;6.692;2023-07-09T11:29:11;4.50;;;4.10;;
3873;SDS011;1952;50.872;6.692;2023-07-09T11:31:43;5.50;;;4.80;;
3873;SDS011;1952;50.872;6.692;2023-07-09T11:34:16;5.70;;;4.67;;
3873;SDS011;1952;50.872;6.692;2023-07-09T11:36:46;4.80;;;4.20;;
3873;SDS011;1952;50.872;6.692;2023-07-09T11:39:17;6.77;;;4.63;;
3873;SDS011;1952;50.872;6.692;2023-07-09T11:41:48;5.17;;;4.60;;
3873;SDS011;1952;50.872;6.692;2023-07-09T11:44:19;7.80;;;4.70;;
3873;SDS011;1952;50.872;6.692;2023-07-09T11:46:54;6.47;;;4.50;;
3873;SDS011;1952;50.872;6.692;2023-07-09T11:49:27;5.43;;;4.07;;
3873;SDS011;1952;50.872;6.692;2023-07-09T11:52:02;5.03;;;4.60;;
3873;SDS011;1952;50.872;6.692;2023-07-09T11:54:35;4.90;;;3.70;;
3873;SDS011;1952;50.872;6.692;2023-07-09T11:57:09;7.07;;;4.43;;
3873;SDS011;1952;50.872;6.692;2023-07-09T11:59:42;4.63;;;4.20;;
3873;SDS011;1952;50.872;6.692;2023-07-09T12:02:13;7.53;;;4.50;;
3873;SDS011;1952;50.872;6.692;2023-07-09T12:04:47;6.77;;;4.87;;
3873;SDS011;1952;50.872;6.692;2023-07-09T12:07:17;6.00;;;5.10;;
3873;SDS011;1952;50.872;6.692;2023-07-09T12:09:49;6.23;;;4.70;;
3873;SDS011;1952;50.872;6.692;2023-07-09T12:12:18;6.93;;;4.47;;
3873;SDS011;1952;50.872;6.692;2023-07-09T12:14:52;5.47;;;4.47;;
3873;SDS011;1952;50.872;6.692;2023-07-09T12:17:23;7.10;;;4.97;;
3873;SDS011;1952;50.872;6.692;2023-07-09T13:08:46;4.73;;;4.30;;
3873;SDS011;1952;50.872;6.692;2023-07-09T13:11:17;4.47;;;4.07;;
3873;SDS011;1952;50.872;6.692;2023-07-09T13:13:53;6.93;;;4.87;;
3873;SDS011;1952;50.872;6.692;2023-07-09T13:16:22;5.20;;;4.53;;
3873;SDS011;1952;50.872;6.692;2023-07-09T13:18:51;5.10;;;4.60;;
3873;SDS011;1952;50.872;6.692;2023-07-09T13:21:20;4.67;;;4.27;;
3873;SDS011;1952;50.872;6.692;2023-07-09T13:23:52;5.10;;;4.60;;
3873;SDS011;1952;50.872;6.692;2023-07-09T13:26:20;5.87;;;4.20;;
3873;SDS011;1952;50.872;6.692;2023-07-09T13:28:48;5.30;;;4.80;;
3873;SDS011;1952;50.872;6.692;2023-07-09T13:31:17;5.00;;;4.50;;
3873;SDS011;1952;50.872;6.692;2023-07-09T13:33:50;4.40;;;4.07;;
3873;SDS011;1952;50.872;6.692;2023-07-09T13:36:21;4.23;;;3.83;;
3873;SDS011;1952;50.872;6.692;2023-07-09T13:38:51;5.60;;;5.10;;
3873;SDS011;1952;50.872;6.692;2023-07-09T13:41:19;6.80;;;5.60;;
3873;SDS011;1952;50.872;6.692;2023-07-09T13:43:49;5.27;;;4.77;;
3873;SDS011;1952;50.872;6.692;2023-07-09T13:46:17;9.20;;;4.73;;
3873;SDS011;1952;50.872;6.692;2023-07-09T13:48:46;13.00;;;5.23;;
3873;SDS011;1952;50.872;6.692;2023-07-09T13:51:16;6.37;;;4.57;;
3873;SDS011;1952;50.872;6.692;2023-07-09T13:53:46;8.40;;;5.30;;
3873;SDS011;1952;50.872;6.692;2023-07-09T13:56:17;14.40;;;5.50;;
3873;SDS011;1952;50.872;6.692;2023-07-09T13:58:46;5.00;;;4.43;;
3873;SDS011;1952;50.872;6.692;2023-07-09T14:01:16;5.83;;;4.17;;
3873;SDS011;1952;50.872;6.692;2023-07-09T14:03:51;7.13;;;5.70;;
3873;SDS011;1952;50.872;6.692;2023-07-09T14:06:28;7.60;;;4.60;;
3873;SDS011;1952;50.872;6.692;2023-07-09T14:08:59;6.03;;;5.13;;
3873;SDS011;1952;50.872;6.692;2023-07-09T14:11:33;6.30;;;4.63;;
3873;SDS011;1952;50.872;6.692;2023-07-09T14:14:04;6.80;;;5.20;;
3873;SDS011;1952;50.872;6.692;2023-07-09T14:16:38;5.53;;;5.03;;
3873;SDS011;1952;50.872;6.692;2023-07-09T14:19:09;5.90;;;5.30;;
3873;SDS011;1952;50.872;6.692;2023-07-09T14:21:50;6.43;;;5.23;;
3873;SDS011;1952;50.872;6.692;2023-07-09T14:24:27;6.77;;;4.97;;
3873;SDS011;1952;50.872;6.692;2023-07-09T14:26:59;6.03;;;5.53;;
3873;SDS011;1952;50.872;6.692;2023-07-09T14:29:31;7.60;;;6.30;;
3873;SDS011;1952;50.872;6.692;2023-07-09T14:32:10;7.70;;;7.00;;
3873;SDS011;1952;50.872;6.692;2023-07-09T14:35:16;14.13;;;9.67;;
3873;SDS011;1952;50.872;6.692;2023-07-09T14:38:06;13.07;;;10.07;;
3873;SDS011;1952;50.872;6.692;2023-07-09T14:40:58;13.00;;;11.77;;
3873;SDS011;1952;50.872;6.692;2023-07-09T14:43:31;12.23;;;10.97;;
3873;SDS011;1952;50.872;6.692;2023-07-09T14:46:00;15.00;;;10.60;;
3873;SDS011;1952;50.872;6.692;2023-07-09T14:48:54;10.13;;;9.13;;
3873;SDS011;1952;50.872;6.692;2023-07-09T14:51:29;10.20;;;9.20;;
3873;SDS011;1952;50.872;6.692;2023-07-09T14:53:59;12.70;;;8.60;;
3873;SDS011;1952;50.872;6.692;2023-07-09T14:56:43;9.90;;;8.67;;
3873;SDS011;1952;50.872;6.692;2023-07-09T14:59:13;16.63;;;11.63;;
3873;SDS011;1952;50.872;6.692;2023-07-09T15:01:56;13.10;;;11.80;;
3873;SDS011;1952;50.872;6.692;2023-07-09T15:04:28;12.57;;;11.33;;
3873;SDS011;1952;50.872;6.692;2023-07-09T15:07:01;15.83;;;13.63;;
3873;SDS011;1952;50.872;6.692;2023-07-09T15:09:44;15.30;;;13.90;;
3873;SDS011;1952;50.872;6.692;2023-07-09T15:12:15;17.47;;;15.80;;
3873;SDS011;1952;50.872;6.692;2023-07-09T15:18:24;19.57;;;17.77;;
3873;SDS011;1952;50.872;6.692;2023-07-09T15:21:08;19.83;;;17.83;;
3873;SDS011;1952;50.872;6.692;2023-07-09T15:23:39;20.13;;;18.23;;
3873;SDS011;1952;50.872;6.692;2023-07-09T15:26:23;17.73;;;16.03;;
3873;SDS011;1952;50.872;6.692;2023-07-09T15:28:56;14.67;;;13.30;;
3873;SDS011;1952;50.872;6.692;2023-07-09T15:31:32;17.97;;;16.20;;
3873;SDS011;1952;50.872;6.692;2023-07-09T15:43:27;15.67;;;14.17;;
3873;SDS011;1952;50.872;6.692;2023-07-09T15:45:56;15.90;;;14.33;;
3873;SDS011;1952;50.872;6.692;2023-07-09T15:48:27;20.97;;;18.97;;
3873;SDS011;1952;50.872;6.692;2023-07-09T15:50:58;15.80;;;14.30;;
3873;SDS011;1952;50.872;6.692;2023-07-09T15:53:28;19.00;;;17.30;;
3873;SDS011;1952;50.872;6.692;2023-07-09T15:55:58;17.63;;;16.13;;
3873;SDS011;1952;50.872;6.692;2023-07-09T15:58:32;16.30;;;14.80;;
3873;SDS011;1952;50.872;6.692;2023-07-09T16:01:04;19.53;;;17.73;;
3873;SDS011;1952;50.872;6.692;2023-07-09T16:03:34;18.10;;;16.30;;
3873;SDS011;1952;50.872;6.692;2023-07-09T16:06:02;16.83;;;15.23;;
3873;SDS011;1952;50.872;6.692;2023-07-09T16:08:31;16.90;;;15.20;;
3873;SDS011;1952;50.872;6.692;2023-07-09T16:11:01;18.10;;;16.23;;
3873;SDS011;1952;50.872;6.692;2023-07-09T16:13:48;17.23;;;15.73;;
3873;SDS011;1952;50.872;6.692;2023-07-09T16:16:18;16.57;;;15.07;;
3873;SDS011;1952;50.872;6.692;2023-07-09T16:18:53;17.70;;;16.20;;
3873;SDS011;1952;50.872;6.692;2023-07-09T16:21:23;18.00;;;16.40;;
3873;SDS011;1952;50.872;6.692;2023-07-09T16:23:55;16.80;;;15.10;;
3873;SDS011;1952;50.872;6.692;2023-07-09T16:26:39;16.73;;;15.27;;
3873;SDS011;1952;50.872;6.692;2023-07-09T16:29:26;15.73;;;14.50;;
3873;SDS011;1952;50.872;6.692;2023-07-09T16:31:56;16.83;;;15.10;;
3873;SDS011;1952;50.872;6.692;2023-07-09T16:34:37;18.77;;;17.17;;
3873;SDS011;1952;50.872;6.692;2023-07-09T16:37:14;19.50;;;17.57;;
3873;SDS011;1952;50.872;6.692;2023-07-09T16:40:13;16.70;;;15.30;;
3873;SDS011;1952;50.872;6.692;2023-07-09T16:42:48;18.37;;;16.53;;
3873;SDS011;1952;50.872;6.692;2023-07-09T16:45:34;18.17;;;16.20;;
3873;SDS011;1952;50.872;6.692;2023-07-09T16:48:09;17.67;;;15.93;;
3873;SDS011;1952;50.872;6.692;2023-07-09T16:53:35;16.30;;;14.70;;
3873;SDS011;1952;50.872;6.692;2023-07-09T16:56:31;18.90;;;16.27;;
3873;SDS011;1952;50.872;6.692;2023-07-09T16:59:06;17.13;;;15.53;;
3873;SDS011;1952;50.872;6.692;2023-07-09T17:02:09;17.97;;;16.30;;
3873;SDS011;1952;50.872;6.692;2023-07-09T17:04:53;17.50;;;15.63;;
3873;SDS011;1952;50.872;6.692;2023-07-09T17:07:22;17.10;;;15.30;;
3873;SDS011;1952;50.872;6.692;2023-07-09T17:09:56;16.60;;;14.90;;
3873;SDS011;1952;50.872;6.692;2023-07-09T17:12:54;15.27;;;13.87;;
3873;SDS011;1952;50.872;6.692;2023-07-09T17:15:41;14.83;;;13.33;;
3873;SDS011;1952;50.872;6.692;2023-07-09T17:18:30;14.97;;;13.40;;